»·PEaware :: FDX4333 KOAK-KPDX

FDX4333 :: KOAK-KPDX

FLIGHT INFORMATION

Flight Status: Arrived
Operator:
Federal Express
More flights by this operator :: More flights under this callsign
Pilot: Jim P. (2486)
Aircraft: Unknown
(B767)
More flights by this aircraft type
Origin: KOAK Metro Oakland Intl
United States
Destination: KPDX Portland Intl
United States
More flights between these airports :: More routes between these airports
Route: +HUSSH2 GRTFL MACHU TMBRS2
File this flight plan on PilotEdge
Remarks: RMK / SIMBRIEF
Altitude:
(Current/Filed)
36,000ft
Speed:
(Current/Filed)
448kts
Departed: 21-Nov-20 12:18 PM
Arrived: 21-Nov-20 01:45 PM
Distance/Time
Traveled:
472nm/1:27
Distance/Time
To Go:
Arrived

Flight Plot

Page will automatically refresh every two minutes.

Flight plan parsing failed; only flown route is shown


Map Options




Map Legend


Flown Route
Filed Route
Departure Airport
Arrival Airport
Navaid (VOR, NDB)
Fix

Horizontal Profiles

Position Reports

Time Latitude Longitude Heading Altitude Ground
Speed
21-Nov-20 11:53 37.716022 -122.219412 138 20ft 0kts
21-Nov-20 11:54 37.716020 -122.219410 138 20ft 0kts
21-Nov-20 11:55 37.716017 -122.219406 138 20ft 0kts
21-Nov-20 11:56 37.716014 -122.219403 138 20ft 0kts
21-Nov-20 11:57 37.716011 -122.219400 138 20ft 0kts
21-Nov-20 11:58 37.716008 -122.219396 138 20ft 0kts
21-Nov-20 11:59 37.716005 -122.219393 138 20ft 0kts
21-Nov-20 12:00 37.716001 -122.219389 138 20ft 0kts
21-Nov-20 12:01 37.715998 -122.219386 138 20ft 0kts
21-Nov-20 12:02 37.715995 -122.219382 138 20ft 0kts
21-Nov-20 12:03 37.715992 -122.219379 138 20ft 0kts
21-Nov-20 12:04 37.715989 -122.219375 138 20ft 0kts
21-Nov-20 12:05 37.715986 -122.219372 138 20ft 0kts
21-Nov-20 12:06 37.715983 -122.219369 138 20ft 0kts
21-Nov-20 12:07 37.715980 -122.219365 138 20ft 0kts
21-Nov-20 12:08 37.715977 -122.219362 138 20ft 0kts
21-Nov-20 12:09 37.715974 -122.219359 138 20ft 0kts
21-Nov-20 12:11 37.715753 -122.219140 147 20ft 8kts
21-Nov-20 12:12 37.713223 -122.221977 227 20ft 15kts
21-Nov-20 12:13 37.710757 -122.224142 142 20ft 8kts
21-Nov-20 12:14 37.707579 -122.219515 129 20ft 24kts
21-Nov-20 12:15 37.703942 -122.214282 148 20ft 18kts
21-Nov-20 12:16 37.702592 -122.213740 197 20ft 0kts
21-Nov-20 12:17 37.702008 -122.214965 303 20ft 0kts
21-Nov-20 12:18 37.718701 -122.240082 305 284ft 187kts
21-Nov-20 12:19 37.740280 -122.309717 287 3755ft 237kts
21-Nov-20 12:20 37.787370 -122.364494 349 8421ft 266kts
21-Nov-20 12:21 37.863518 -122.388086 349 12100ft 310kts
21-Nov-20 12:22 37.957236 -122.378676 3 15601ft 360kts
21-Nov-20 12:23 38.056804 -122.340830 5 18644ft 380kts
21-Nov-20 12:24 38.159555 -122.303048 4 20580ft 390kts
21-Nov-20 12:24 38.247795 -122.270382 4 23213ft 404kts
21-Nov-20 12:26 38.377699 -122.234926 347 26172ft 404kts
21-Nov-20 12:26 38.470304 -122.243439 345 28586ft 405kts
21-Nov-20 12:28 38.601941 -122.257068 344 31842ft 400kts
21-Nov-20 12:28 38.693106 -122.266386 344 34161ft 389kts
21-Nov-20 12:29 38.800095 -122.277441 343 36026ft 384kts
21-Nov-20 12:31 38.923291 -122.290288 343 36128ft 379kts
21-Nov-20 12:31 39.011084 -122.299517 342 36128ft 379kts
21-Nov-20 12:32 39.116365 -122.310622 342 36129ft 379kts
21-Nov-20 12:33 39.221537 -122.321752 342 36118ft 378kts
21-Nov-20 12:34 39.326468 -122.332909 341 36123ft 379kts
21-Nov-20 12:35 39.431755 -122.344127 341 36121ft 379kts
21-Nov-20 12:36 39.536711 -122.355350 341 36117ft 378kts
21-Nov-20 12:37 39.640797 -122.366523 341 36117ft 379kts
21-Nov-20 12:38 39.746579 -122.377904 340 36115ft 378kts
21-Nov-20 12:39 39.851267 -122.389208 340 36107ft 378kts
21-Nov-20 12:40 39.955990 -122.400544 340 36104ft 377kts
21-Nov-20 12:41 40.060813 -122.411952 340 36103ft 378kts
21-Nov-20 12:42 40.165722 -122.423397 340 36102ft 378kts
21-Nov-20 12:43 40.270503 -122.434865 340 36094ft 378kts
21-Nov-20 12:44 40.375318 -122.446380 340 36081ft 378kts
21-Nov-20 12:45 40.480134 -122.457934 340 36069ft 378kts
21-Nov-20 12:46 40.585150 -122.469548 340 36062ft 378kts
21-Nov-20 12:47 40.689760 -122.481156 340 36061ft 378kts
21-Nov-20 12:48 40.793726 -122.498441 340 36055ft 377kts
21-Nov-20 12:49 40.898908 -122.509576 340 36042ft 380kts
21-Nov-20 12:50 41.004109 -122.520531 340 36028ft 380kts
21-Nov-20 12:51 41.109552 -122.531523 340 36014ft 380kts
21-Nov-20 12:52 41.215083 -122.542589 340 36004ft 380kts
21-Nov-20 12:53 41.320793 -122.553714 340 36000ft 380kts
21-Nov-20 12:54 41.426487 -122.564880 340 35999ft 380kts
21-Nov-20 12:55 41.531905 -122.575940 340 36001ft 381kts
21-Nov-20 12:56 41.638174 -122.582701 342 36004ft 384kts
21-Nov-20 12:57 41.745251 -122.589651 341 36004ft 383kts
21-Nov-20 12:58 41.852246 -122.596661 341 36003ft 383kts
21-Nov-20 12:59 41.958967 -122.603655 341 36004ft 383kts
21-Nov-20 13:00 42.065703 -122.610738 342 36008ft 387kts
21-Nov-20 13:01 42.173499 -122.617796 342 36015ft 387kts
21-Nov-20 13:02 42.275974 -122.624626 342 36027ft 387kts
21-Nov-20 13:03 42.388545 -122.632146 342 36030ft 388kts
21-Nov-20 13:04 42.496919 -122.639437 342 36026ft 390kts
21-Nov-20 13:05 42.605568 -122.646726 342 36021ft 392kts
21-Nov-20 13:06 42.714652 -122.654094 342 36024ft 393kts
21-Nov-20 13:07 42.824157 -122.661512 342 36020ft 394kts
21-Nov-20 13:08 42.933307 -122.668937 343 36017ft 396kts
21-Nov-20 13:09 43.043996 -122.676491 343 36015ft 397kts
21-Nov-20 13:10 43.154874 -122.684086 343 36008ft 399kts
21-Nov-20 13:11 43.265876 -122.691702 344 36001ft 399kts
21-Nov-20 13:12 43.376649 -122.699351 344 35995ft 400kts
21-Nov-20 13:13 43.488126 -122.707045 344 35991ft 401kts
21-Nov-20 13:14 43.593453 -122.714316 344 35986ft 402kts
21-Nov-20 13:15 43.705841 -122.722123 344 34765ft 404kts
21-Nov-20 13:16 43.817912 -122.729898 344 32287ft 403kts
21-Nov-20 13:17 43.929750 -122.737706 344 29797ft 400kts
21-Nov-20 13:18 44.042463 -122.745788 346 27297ft 414kts
21-Nov-20 13:19 44.159871 -122.752850 351 24802ft 431kts
21-Nov-20 13:20 44.278667 -122.740406 354 23962ft 404kts
21-Nov-20 13:21 44.381530 -122.730211 353 21931ft 354kts
21-Nov-20 13:22 44.479257 -122.720660 354 19947ft 348kts
21-Nov-20 13:23 44.574688 -122.711181 355 17988ft 340kts
21-Nov-20 13:24 44.664171 -122.702494 355 16451ft 343kts
21-Nov-20 13:25 44.767067 -122.692081 357 14520ft 403kts
21-Nov-20 13:26 44.876246 -122.680561 356 12597ft 355kts
21-Nov-20 13:27 44.965708 -122.671646 355 11468ft 286kts
21-Nov-20 13:28 45.043297 -122.664008 355 10316ft 276kts
21-Nov-20 13:29 45.118776 -122.656258 356 9239ft 263kts
21-Nov-20 13:30 45.191315 -122.648917 356 7883ft 259kts
21-Nov-20 13:31 45.261945 -122.634076 21 6497ft 264kts
21-Nov-20 13:32 45.324633 -122.575114 26 5108ft 271kts
21-Nov-20 13:33 45.385528 -122.520498 26 4399ft 247kts
21-Nov-20 13:34 45.418922 -122.446298 76 3633ft 243kts
21-Nov-20 13:35 45.431815 -122.353690 76 3386ft 237kts
21-Nov-20 13:36 45.446479 -122.262003 56 3341ft 236kts
21-Nov-20 13:37 45.496102 -122.259137 293 2577ft 194kts
21-Nov-20 13:38 45.504545 -122.331814 277 2375ft 185kts
21-Nov-20 13:39 45.512529 -122.403273 291 2387ft 171kts
21-Nov-20 13:40 45.532708 -122.460982 296 1950ft 157kts
21-Nov-20 13:41 45.551755 -122.510140 296 1207ft 141kts
21-Nov-20 13:42 45.570619 -122.558537 297 460ft 137kts
21-Nov-20 13:43 45.586839 -122.600212 298 32ft 57kts
21-Nov-20 13:44 45.589318 -122.606537 299 32ft 16kts

Navigation Log

Ident Type
Flight plan parsing failed, navigation log unavailable